sensor_id;sensor_type;location;lat;lon;timestamp;P1;durP1;ratioP1;P2;durP2;ratioP2
56239;SDS011;42154;51.992;5.896;2024-01-30T00:01:53;14.02;;;9.23;;
56239;SDS011;42154;51.992;5.896;2024-01-30T00:04:19;13.90;;;9.27;;
56239;SDS011;42154;51.992;5.896;2024-01-30T00:06:45;14.32;;;9.20;;
56239;SDS011;42154;51.992;5.896;2024-01-30T00:09:11;14.65;;;8.80;;
56239;SDS011;42154;51.992;5.896;2024-01-30T00:11:39;14.13;;;8.77;;
56239;SDS011;42154;51.992;5.896;2024-01-30T00:14:05;15.50;;;8.82;;
56239;SDS011;42154;51.992;5.896;2024-01-30T00:16:31;13.52;;;8.98;;
56239;SDS011;42154;51.992;5.896;2024-01-30T00:18:57;11.73;;;8.32;;
56239;SDS011;42154;51.992;5.896;2024-01-30T00:21:23;12.52;;;8.73;;
56239;SDS011;42154;51.992;5.896;2024-01-30T00:23:49;12.48;;;8.38;;
56239;SDS011;42154;51.992;5.896;2024-01-30T00:26:14;10.38;;;7.72;;
56239;SDS011;42154;51.992;5.896;2024-01-30T00:28:41;13.20;;;8.52;;
56239;SDS011;42154;51.992;5.896;2024-01-30T00:31:07;11.30;;;7.75;;
56239;SDS011;42154;51.992;5.896;2024-01-30T00:33:33;11.23;;;8.15;;
56239;SDS011;42154;51.992;5.896;2024-01-30T00:35:58;12.13;;;8.30;;
56239;SDS011;42154;51.992;5.896;2024-01-30T00:38:24;11.68;;;7.75;;
56239;SDS011;42154;51.992;5.896;2024-01-30T00:40:50;10.23;;;7.80;;
56239;SDS011;42154;51.992;5.896;2024-01-30T00:43:16;9.48;;;7.38;;
56239;SDS011;42154;51.992;5.896;2024-01-30T00:45:43;10.02;;;7.45;;
56239;SDS011;42154;51.992;5.896;2024-01-30T00:48:09;10.05;;;7.20;;
56239;SDS011;42154;51.992;5.896;2024-01-30T00:50:35;8.80;;;6.95;;
56239;SDS011;42154;51.992;5.896;2024-01-30T00:53:01;9.57;;;6.95;;
56239;SDS011;42154;51.992;5.896;2024-01-30T00:55:27;8.02;;;6.15;;
56239;SDS011;42154;51.992;5.896;2024-01-30T00:57:52;7.45;;;6.03;;
56239;SDS011;42154;51.992;5.896;2024-01-30T01:00:18;7.90;;;5.53;;
56239;SDS011;42154;51.992;5.896;2024-01-30T01:02:46;7.90;;;6.07;;
56239;SDS011;42154;51.992;5.896;2024-01-30T01:05:11;7.68;;;5.97;;
56239;SDS011;42154;51.992;5.896;2024-01-30T01:07:37;8.60;;;6.63;;
56239;SDS011;42154;51.992;5.896;2024-01-30T01:10:03;9.02;;;6.53;;
56239;SDS011;42154;51.992;5.896;2024-01-30T01:12:29;7.22;;;5.72;;
56239;SDS011;42154;51.992;5.896;2024-01-30T01:14:55;7.07;;;5.75;;
56239;SDS011;42154;51.992;5.896;2024-01-30T01:17:20;7.47;;;6.03;;
56239;SDS011;42154;51.992;5.896;2024-01-30T01:19:46;7.40;;;5.65;;
56239;SDS011;42154;51.992;5.896;2024-01-30T01:22:12;7.15;;;5.78;;
56239;SDS011;42154;51.992;5.896;2024-01-30T01:24:37;7.55;;;5.95;;
56239;SDS011;42154;51.992;5.896;2024-01-30T01:27:04;7.85;;;6.15;;
56239;SDS011;42154;51.992;5.896;2024-01-30T01:29:31;8.60;;;6.70;;
56239;SDS011;42154;51.992;5.896;2024-01-30T01:31:57;9.15;;;7.35;;
56239;SDS011;42154;51.992;5.896;2024-01-30T01:34:23;10.35;;;7.18;;
56239;SDS011;42154;51.992;5.896;2024-01-30T01:36:50;9.60;;;7.43;;
56239;SDS011;42154;51.992;5.896;2024-01-30T01:39:16;11.10;;;7.28;;
56239;SDS011;42154;51.992;5.896;2024-01-30T01:41:42;10.13;;;6.75;;
56239;SDS011;42154;51.992;5.896;2024-01-30T01:44:08;7.78;;;6.68;;
56239;SDS011;42154;51.992;5.896;2024-01-30T01:46:34;9.00;;;6.07;;
56239;SDS011;42154;51.992;5.896;2024-01-30T01:49:02;7.05;;;6.35;;
56239;SDS011;42154;51.992;5.896;2024-01-30T01:51:29;7.68;;;6.07;;
56239;SDS011;42154;51.992;5.896;2024-01-30T01:53:57;8.00;;;5.85;;
56239;SDS011;42154;51.992;5.896;2024-01-30T01:56:25;8.80;;;6.35;;
56239;SDS011;42154;51.992;5.896;2024-01-30T01:58:53;8.48;;;6.13;;
56239;SDS011;42154;51.992;5.896;2024-01-30T02:01:20;7.28;;;5.50;;
56239;SDS011;42154;51.992;5.896;2024-01-30T02:03:46;7.82;;;5.68;;
56239;SDS011;42154;51.992;5.896;2024-01-30T02:06:15;7.95;;;5.70;;
56239;SDS011;42154;51.992;5.896;2024-01-30T02:08:41;6.97;;;5.80;;
56239;SDS011;42154;51.992;5.896;2024-01-30T02:11:07;6.15;;;5.30;;
56239;SDS011;42154;51.992;5.896;2024-01-30T02:13:35;7.45;;;5.63;;
56239;SDS011;42154;51.992;5.896;2024-01-30T02:16:01;7.40;;;5.55;;
56239;SDS011;42154;51.992;5.896;2024-01-30T02:18:26;7.60;;;5.97;;
56239;SDS011;42154;51.992;5.896;2024-01-30T02:20:53;6.93;;;5.82;;
56239;SDS011;42154;51.992;5.896;2024-01-30T02:23:21;9.32;;;6.95;;
56239;SDS011;42154;51.992;5.896;2024-01-30T02:25:49;8.93;;;6.53;;
56239;SDS011;42154;51.992;5.896;2024-01-30T02:28:15;8.98;;;6.60;;
56239;SDS011;42154;51.992;5.896;2024-01-30T02:30:42;8.15;;;6.63;;
56239;SDS011;42154;51.992;5.896;2024-01-30T02:33:08;11.63;;;7.18;;
56239;SDS011;42154;51.992;5.896;2024-01-30T02:35:34;8.20;;;6.20;;
56239;SDS011;42154;51.992;5.896;2024-01-30T02:38:00;9.40;;;6.95;;
56239;SDS011;42154;51.992;5.896;2024-01-30T02:40:26;9.02;;;6.15;;
56239;SDS011;42154;51.992;5.896;2024-01-30T02:42:51;8.95;;;6.55;;
56239;SDS011;42154;51.992;5.896;2024-01-30T02:45:17;8.82;;;6.43;;
56239;SDS011;42154;51.992;5.896;2024-01-30T02:47:43;7.25;;;6.40;;
56239;SDS011;42154;51.992;5.896;2024-01-30T02:50:09;7.53;;;6.22;;
56239;SDS011;42154;51.992;5.896;2024-01-30T02:52:35;11.18;;;7.28;;
56239;SDS011;42154;51.992;5.896;2024-01-30T02:55:01;8.13;;;6.65;;
56239;SDS011;42154;51.992;5.896;2024-01-30T02:57:27;7.38;;;5.95;;
56239;SDS011;42154;51.992;5.896;2024-01-30T02:59:53;9.48;;;6.55;;
56239;SDS011;42154;51.992;5.896;2024-01-30T03:02:19;8.13;;;6.43;;
56239;SDS011;42154;51.992;5.896;2024-01-30T03:04:45;9.30;;;6.63;;
56239;SDS011;42154;51.992;5.896;2024-01-30T03:07:11;7.30;;;5.78;;
56239;SDS011;42154;51.992;5.896;2024-01-30T03:09:37;6.78;;;5.95;;
56239;SDS011;42154;51.992;5.896;2024-01-30T03:12:03;8.60;;;6.55;;
56239;SDS011;42154;51.992;5.896;2024-01-30T03:14:30;8.35;;;6.70;;
56239;SDS011;42154;51.992;5.896;2024-01-30T03:16:57;7.47;;;6.38;;
56239;SDS011;42154;51.992;5.896;2024-01-30T03:19:23;8.88;;;7.30;;
56239;SDS011;42154;51.992;5.896;2024-01-30T03:21:48;7.97;;;6.78;;
56239;SDS011;42154;51.992;5.896;2024-01-30T03:24:14;8.10;;;6.45;;
56239;SDS011;42154;51.992;5.896;2024-01-30T03:26:40;7.63;;;5.80;;
56239;SDS011;42154;51.992;5.896;2024-01-30T03:29:06;7.40;;;6.03;;
56239;SDS011;42154;51.992;5.896;2024-01-30T03:31:31;8.18;;;6.22;;
56239;SDS011;42154;51.992;5.896;2024-01-30T03:33:57;7.53;;;6.72;;
56239;SDS011;42154;51.992;5.896;2024-01-30T03:36:23;9.20;;;7.18;;
56239;SDS011;42154;51.992;5.896;2024-01-30T03:38:49;10.95;;;8.32;;
56239;SDS011;42154;51.992;5.896;2024-01-30T03:41:14;9.32;;;7.82;;
56239;SDS011;42154;51.992;5.896;2024-01-30T03:43:40;10.70;;;7.32;;
56239;SDS011;42154;51.992;5.896;2024-01-30T03:46:06;7.80;;;6.82;;
56239;SDS011;42154;51.992;5.896;2024-01-30T03:48:32;9.13;;;6.75;;
56239;SDS011;42154;51.992;5.896;2024-01-30T03:50:58;9.73;;;6.97;;
56239;SDS011;42154;51.992;5.896;2024-01-30T03:53:23;8.77;;;6.55;;
56239;SDS011;42154;51.992;5.896;2024-01-30T03:55:49;9.23;;;6.28;;
56239;SDS011;42154;51.992;5.896;2024-01-30T03:58:15;8.15;;;6.38;;
56239;SDS011;42154;51.992;5.896;2024-01-30T04:00:40;7.45;;;6.35;;
56239;SDS011;42154;51.992;5.896;2024-01-30T04:03:06;8.18;;;6.38;;
56239;SDS011;42154;51.992;5.896;2024-01-30T04:05:32;7.75;;;6.38;;
56239;SDS011;42154;51.992;5.896;2024-01-30T04:07:58;10.32;;;6.90;;
56239;SDS011;42154;51.992;5.896;2024-01-30T04:10:24;7.80;;;6.35;;
56239;SDS011;42154;51.992;5.896;2024-01-30T04:12:50;8.15;;;6.00;;
56239;SDS011;42154;51.992;5.896;2024-01-30T04:15:17;7.68;;;5.82;;
56239;SDS011;42154;51.992;5.896;2024-01-30T04:17:43;7.53;;;6.00;;
56239;SDS011;42154;51.992;5.896;2024-01-30T04:20:15;8.73;;;5.88;;
56239;SDS011;42154;51.992;5.896;2024-01-30T04:22:42;7.20;;;5.90;;
56239;SDS011;42154;51.992;5.896;2024-01-30T04:25:09;7.57;;;5.90;;
56239;SDS011;42154;51.992;5.896;2024-01-30T04:27:35;6.80;;;6.03;;
56239;SDS011;42154;51.992;5.896;2024-01-30T04:30:00;6.88;;;5.57;;
56239;SDS011;42154;51.992;5.896;2024-01-30T04:32:26;9.68;;;5.95;;
56239;SDS011;42154;51.992;5.896;2024-01-30T04:34:52;7.47;;;5.55;;
56239;SDS011;42154;51.992;5.896;2024-01-30T04:37:17;7.82;;;6.50;;
56239;SDS011;42154;51.992;5.896;2024-01-30T04:39:43;7.20;;;5.88;;
56239;SDS011;42154;51.992;5.896;2024-01-30T04:42:09;8.13;;;6.03;;
56239;SDS011;42154;51.992;5.896;2024-01-30T04:44:35;7.28;;;5.82;;
56239;SDS011;42154;51.992;5.896;2024-01-30T04:47:00;8.02;;;5.93;;
56239;SDS011;42154;51.992;5.896;2024-01-30T04:49:27;8.77;;;6.35;;
56239;SDS011;42154;51.992;5.896;2024-01-30T04:51:54;7.63;;;5.90;;
56239;SDS011;42154;51.992;5.896;2024-01-30T04:54:20;8.82;;;6.25;;
56239;SDS011;42154;51.992;5.896;2024-01-30T04:56:45;7.72;;;6.05;;
56239;SDS011;42154;51.992;5.896;2024-01-30T04:59:11;7.97;;;6.78;;
56239;SDS011;42154;51.992;5.896;2024-01-30T05:01:37;8.27;;;6.15;;
56239;SDS011;42154;51.992;5.896;2024-01-30T05:04:03;9.05;;;6.15;;
56239;SDS011;42154;51.992;5.896;2024-01-30T05:06:28;8.38;;;6.03;;
56239;SDS011;42154;51.992;5.896;2024-01-30T05:08:55;7.50;;;5.85;;
56239;SDS011;42154;51.992;5.896;2024-01-30T05:11:20;7.05;;;5.45;;
56239;SDS011;42154;51.992;5.896;2024-01-30T05:13:46;7.07;;;5.65;;
56239;SDS011;42154;51.992;5.896;2024-01-30T05:16:12;6.57;;;5.35;;
56239;SDS011;42154;51.992;5.896;2024-01-30T05:18:38;6.95;;;5.60;;
56239;SDS011;42154;51.992;5.896;2024-01-30T05:21:05;6.93;;;6.13;;
56239;SDS011;42154;51.992;5.896;2024-01-30T05:23:31;7.13;;;5.50;;
56239;SDS011;42154;51.992;5.896;2024-01-30T05:25:57;7.15;;;5.65;;
56239;SDS011;42154;51.992;5.896;2024-01-30T05:28:22;6.80;;;5.60;;
56239;SDS011;42154;51.992;5.896;2024-01-30T05:30:48;6.97;;;5.35;;
56239;SDS011;42154;51.992;5.896;2024-01-30T05:33:14;6.95;;;5.18;;
56239;SDS011;42154;51.992;5.896;2024-01-30T05:35:39;6.63;;;5.47;;
56239;SDS011;42154;51.992;5.896;2024-01-30T05:38:05;6.32;;;5.20;;
56239;SDS011;42154;51.992;5.896;2024-01-30T05:40:31;6.38;;;4.70;;
56239;SDS011;42154;51.992;5.896;2024-01-30T05:42:57;7.85;;;5.00;;
56239;SDS011;42154;51.992;5.896;2024-01-30T05:45:27;6.78;;;5.38;;
56239;SDS011;42154;51.992;5.896;2024-01-30T05:47:53;8.20;;;5.88;;
56239;SDS011;42154;51.992;5.896;2024-01-30T05:50:19;6.32;;;5.35;;
56239;SDS011;42154;51.992;5.896;2024-01-30T05:52:45;6.53;;;4.80;;
56239;SDS011;42154;51.992;5.896;2024-01-30T05:55:11;6.20;;;5.10;;
56239;SDS011;42154;51.992;5.896;2024-01-30T05:57:37;7.35;;;5.57;;
56239;SDS011;42154;51.992;5.896;2024-01-30T06:00:04;6.35;;;4.85;;
56239;SDS011;42154;51.992;5.896;2024-01-30T06:02:32;5.97;;;4.90;;
56239;SDS011;42154;51.992;5.896;2024-01-30T06:04:58;6.25;;;5.00;;
56239;SDS011;42154;51.992;5.896;2024-01-30T06:07:23;5.55;;;4.75;;
56239;SDS011;42154;51.992;5.896;2024-01-30T06:09:49;7.15;;;5.00;;
56239;SDS011;42154;51.992;5.896;2024-01-30T06:12:15;7.95;;;4.90;;
56239;SDS011;42154;51.992;5.896;2024-01-30T06:14:41;6.60;;;4.93;;
56239;SDS011;42154;51.992;5.896;2024-01-30T06:17:07;6.40;;;5.20;;
56239;SDS011;42154;51.992;5.896;2024-01-30T06:19:33;7.30;;;5.07;;
56239;SDS011;42154;51.992;5.896;2024-01-30T06:21:59;6.28;;;4.35;;
56239;SDS011;42154;51.992;5.896;2024-01-30T06:24:25;5.57;;;4.57;;
56239;SDS011;42154;51.992;5.896;2024-01-30T06:26:51;4.78;;;4.07;;
56239;SDS011;42154;51.992;5.896;2024-01-30T06:29:17;5.85;;;4.90;;
56239;SDS011;42154;51.992;5.896;2024-01-30T06:31:42;6.15;;;4.85;;
56239;SDS011;42154;51.992;5.896;2024-01-30T06:34:09;6.07;;;4.50;;
56239;SDS011;42154;51.992;5.896;2024-01-30T06:36:35;5.88;;;4.00;;
56239;SDS011;42154;51.992;5.896;2024-01-30T06:39:01;6.50;;;4.50;;
56239;SDS011;42154;51.992;5.896;2024-01-30T06:41:27;5.95;;;4.45;;
56239;SDS011;42154;51.992;5.896;2024-01-30T06:43:53;6.22;;;3.90;;
56239;SDS011;42154;51.992;5.896;2024-01-30T06:46:19;5.78;;;4.15;;
56239;SDS011;42154;51.992;5.896;2024-01-30T06:48:45;6.30;;;4.00;;
56239;SDS011;42154;51.992;5.896;2024-01-30T06:51:11;6.13;;;4.13;;
56239;SDS011;42154;51.992;5.896;2024-01-30T06:53:37;6.63;;;4.20;;
56239;SDS011;42154;51.992;5.896;2024-01-30T06:56:03;7.40;;;4.68;;
56239;SDS011;42154;51.992;5.896;2024-01-30T06:58:29;6.90;;;4.32;;
56239;SDS011;42154;51.992;5.896;2024-01-30T07:00:55;4.85;;;3.90;;
56239;SDS011;42154;51.992;5.896;2024-01-30T07:03:21;6.95;;;4.68;;
56239;SDS011;42154;51.992;5.896;2024-01-30T07:05:47;4.43;;;3.80;;
56239;SDS011;42154;51.992;5.896;2024-01-30T07:08:14;5.60;;;4.70;;
56239;SDS011;42154;51.992;5.896;2024-01-30T07:10:43;5.63;;;4.47;;
56239;SDS011;42154;51.992;5.896;2024-01-30T07:13:10;5.32;;;3.90;;
56239;SDS011;42154;51.992;5.896;2024-01-30T07:15:36;6.43;;;4.50;;
56239;SDS011;42154;51.992;5.896;2024-01-30T07:18:03;6.65;;;5.50;;
56239;SDS011;42154;51.992;5.896;2024-01-30T07:20:30;5.40;;;4.22;;
56239;SDS011;42154;51.992;5.896;2024-01-30T07:22:59;6.78;;;4.30;;
56239;SDS011;42154;51.992;5.896;2024-01-30T07:25:25;5.65;;;4.40;;
56239;SDS011;42154;51.992;5.896;2024-01-30T07:27:55;5.18;;;4.30;;
56239;SDS011;42154;51.992;5.896;2024-01-30T07:30:21;5.68;;;4.20;;
56239;SDS011;42154;51.992;5.896;2024-01-30T07:32:48;5.90;;;4.20;;
56239;SDS011;42154;51.992;5.896;2024-01-30T07:35:14;5.30;;;4.28;;
56239;SDS011;42154;51.992;5.896;2024-01-30T07:37:40;5.18;;;3.70;;
56239;SDS011;42154;51.992;5.896;2024-01-30T07:40:06;6.97;;;5.53;;
56239;SDS011;42154;51.992;5.896;2024-01-30T07:42:32;7.28;;;5.28;;
56239;SDS011;42154;51.992;5.896;2024-01-30T07:44:58;6.13;;;4.63;;
56239;SDS011;42154;51.992;5.896;2024-01-30T07:47:25;7.50;;;5.32;;
56239;SDS011;42154;51.992;5.896;2024-01-30T07:49:51;6.47;;;4.57;;
56239;SDS011;42154;51.992;5.896;2024-01-30T07:52:17;5.72;;;4.50;;
56239;SDS011;42154;51.992;5.896;2024-01-30T07:54:50;6.65;;;4.72;;
56239;SDS011;42154;51.992;5.896;2024-01-30T07:57:16;6.60;;;5.15;;
56239;SDS011;42154;51.992;5.896;2024-01-30T07:59:43;6.10;;;4.55;;
56239;SDS011;42154;51.992;5.896;2024-01-30T08:02:09;6.18;;;4.85;;
56239;SDS011;42154;51.992;5.896;2024-01-30T08:04:35;6.30;;;4.97;;
56239;SDS011;42154;51.992;5.896;2024-01-30T08:07:01;5.57;;;4.60;;
56239;SDS011;42154;51.992;5.896;2024-01-30T08:09:27;6.13;;;4.82;;
56239;SDS011;42154;51.992;5.896;2024-01-30T08:11:53;4.80;;;4.30;;
56239;SDS011;42154;51.992;5.896;2024-01-30T08:14:18;6.78;;;4.43;;
56239;SDS011;42154;51.992;5.896;2024-01-30T08:16:44;5.93;;;4.70;;
56239;SDS011;42154;51.992;5.896;2024-01-30T08:19:10;6.13;;;4.78;;
56239;SDS011;42154;51.992;5.896;2024-01-30T08:21:36;6.57;;;5.03;;
56239;SDS011;42154;51.992;5.896;2024-01-30T08:24:03;8.27;;;5.15;;
56239;SDS011;42154;51.992;5.896;2024-01-30T08:26:29;6.60;;;4.93;;
56239;SDS011;42154;51.992;5.896;2024-01-30T08:28:56;6.40;;;4.80;;
56239;SDS011;42154;51.992;5.896;2024-01-30T08:31:22;6.50;;;4.95;;
56239;SDS011;42154;51.992;5.896;2024-01-30T08:33:48;6.75;;;4.88;;
56239;SDS011;42154;51.992;5.896;2024-01-30T08:36:14;7.07;;;4.97;;
56239;SDS011;42154;51.992;5.896;2024-01-30T08:38:40;7.10;;;5.10;;
56239;SDS011;42154;51.992;5.896;2024-01-30T08:41:07;6.10;;;4.75;;
56239;SDS011;42154;51.992;5.896;2024-01-30T08:43:33;6.75;;;5.18;;
56239;SDS011;42154;51.992;5.896;2024-01-30T08:45:59;8.48;;;5.60;;
56239;SDS011;42154;51.992;5.896;2024-01-30T08:48:25;7.15;;;5.93;;
56239;SDS011;42154;51.992;5.896;2024-01-30T08:50:51;7.93;;;6.25;;
56239;SDS011;42154;51.992;5.896;2024-01-30T08:53:17;8.75;;;6.28;;
56239;SDS011;42154;51.992;5.896;2024-01-30T08:55:43;6.45;;;5.25;;
56239;SDS011;42154;51.992;5.896;2024-01-30T08:58:09;7.45;;;5.10;;
56239;SDS011;42154;51.992;5.896;2024-01-30T09:00:35;6.82;;;5.22;;
56239;SDS011;42154;51.992;5.896;2024-01-30T09:03:01;6.93;;;5.55;;
56239;SDS011;42154;51.992;5.896;2024-01-30T09:05:28;8.02;;;5.32;;
56239;SDS011;42154;51.992;5.896;2024-01-30T09:07:53;6.28;;;4.88;;
56239;SDS011;42154;51.992;5.896;2024-01-30T09:10:19;5.53;;;4.68;;
56239;SDS011;42154;51.992;5.896;2024-01-30T09:12:46;7.28;;;5.38;;
56239;SDS011;42154;51.992;5.896;2024-01-30T09:15:12;7.05;;;5.20;;
56239;SDS011;42154;51.992;5.896;2024-01-30T09:17:37;8.25;;;5.63;;
56239;SDS011;42154;51.992;5.896;2024-01-30T09:20:04;6.90;;;5.65;;
56239;SDS011;42154;51.992;5.896;2024-01-30T09:22:30;8.30;;;6.22;;
56239;SDS011;42154;51.992;5.896;2024-01-30T09:24:56;6.13;;;5.00;;
56239;SDS011;42154;51.992;5.896;2024-01-30T09:27:22;7.43;;;5.53;;
56239;SDS011;42154;51.992;5.896;2024-01-30T09:29:48;7.03;;;5.78;;
56239;SDS011;42154;51.992;5.896;2024-01-30T09:32:14;8.57;;;6.05;;
56239;SDS011;42154;51.992;5.896;2024-01-30T09:34:40;10.52;;;6.68;;
56239;SDS011;42154;51.992;5.896;2024-01-30T09:37:06;7.43;;;6.05;;
56239;SDS011;42154;51.992;5.896;2024-01-30T09:39:32;7.30;;;5.95;;
56239;SDS011;42154;51.992;5.896;2024-01-30T09:45:02;6.35;;;5.38;;
56239;SDS011;42154;51.992;5.896;2024-01-30T09:47:32;8.57;;;5.97;;
56239;SDS011;42154;51.992;5.896;2024-01-30T09:50:12;6.07;;;4.78;;
56239;SDS011;42154;51.992;5.896;2024-01-30T09:52:39;8.18;;;5.25;;
56239;SDS011;42154;51.992;5.896;2024-01-30T09:55:05;10.43;;;6.85;;
56239;SDS011;42154;51.992;5.896;2024-01-30T09:57:32;10.30;;;7.10;;
56239;SDS011;42154;51.992;5.896;2024-01-30T09:59:59;11.10;;;7.63;;
56239;SDS011;42154;51.992;5.896;2024-01-30T10:02:24;9.02;;;6.57;;
56239;SDS011;42154;51.992;5.896;2024-01-30T10:04:50;9.95;;;7.13;;
56239;SDS011;42154;51.992;5.896;2024-01-30T10:07:17;6.88;;;5.60;;
56239;SDS011;42154;51.992;5.896;2024-01-30T10:09:44;8.13;;;6.10;;
56239;SDS011;42154;51.992;5.896;2024-01-30T10:12:10;9.23;;;5.97;;
56239;SDS011;42154;51.992;5.896;2024-01-30T10:14:40;7.57;;;6.30;;
56239;SDS011;42154;51.992;5.896;2024-01-30T10:17:07;6.72;;;5.53;;
56239;SDS011;42154;51.992;5.896;2024-01-30T10:19:40;8.57;;;5.53;;
56239;SDS011;42154;51.992;5.896;2024-01-30T10:22:06;7.18;;;6.05;;
56239;SDS011;42154;51.992;5.896;2024-01-30T10:24:33;7.60;;;6.20;;
56239;SDS011;42154;51.992;5.896;2024-01-30T10:26:59;10.82;;;6.97;;
56239;SDS011;42154;51.992;5.896;2024-01-30T10:29:26;8.15;;;6.65;;
56239;SDS011;42154;51.992;5.896;2024-01-30T10:32:02;10.35;;;7.18;;
56239;SDS011;42154;51.992;5.896;2024-01-30T10:34:29;9.63;;;6.75;;
56239;SDS011;42154;51.992;5.896;2024-01-30T10:37:08;9.63;;;7.10;;
56239;SDS011;42154;51.992;5.896;2024-01-30T10:39:43;9.82;;;6.72;;
56239;SDS011;42154;51.992;5.896;2024-01-30T10:42:17;10.45;;;7.10;;
56239;SDS011;42154;51.992;5.896;2024-01-30T10:45:25;9.43;;;7.20;;
56239;SDS011;42154;51.992;5.896;2024-01-30T10:47:34;7.28;;;4.43;;
56239;SDS011;42154;51.992;5.896;2024-01-30T10:50:04;12.18;;;6.93;;
56239;SDS011;42154;51.992;5.896;2024-01-30T10:52:31;11.45;;;6.85;;
56239;SDS011;42154;51.992;5.896;2024-01-30T10:54:58;10.43;;;7.43;;
56239;SDS011;42154;51.992;5.896;2024-01-30T10:57:24;12.82;;;8.13;;
56239;SDS011;42154;51.992;5.896;2024-01-30T10:59:58;10.38;;;8.25;;
56239;SDS011;42154;51.992;5.896;2024-01-30T11:02:25;10.82;;;7.22;;
56239;SDS011;42154;51.992;5.896;2024-01-30T11:04:56;14.15;;;8.38;;
56239;SDS011;42154;51.992;5.896;2024-01-30T11:07:27;12.43;;;8.15;;
56239;SDS011;42154;51.992;5.896;2024-01-30T11:09:59;10.82;;;7.43;;
56239;SDS011;42154;51.992;5.896;2024-01-30T11:12:27;12.93;;;8.38;;
56239;SDS011;42154;51.992;5.896;2024-01-30T11:15:04;10.48;;;7.70;;
56239;SDS011;42154;51.992;5.896;2024-01-30T11:20:16;10.18;;;7.65;;
56239;SDS011;42154;51.992;5.896;2024-01-30T11:22:51;10.18;;;6.68;;
56239;SDS011;42154;51.992;5.896;2024-01-30T11:25:20;11.57;;;8.55;;
56239;SDS011;42154;51.992;5.896;2024-01-30T11:27:46;12.10;;;8.57;;
56239;SDS011;42154;51.992;5.896;2024-01-30T11:30:27;11.60;;;8.18;;
56239;SDS011;42154;51.992;5.896;2024-01-30T11:33:07;11.32;;;8.18;;
56239;SDS011;42154;51.992;5.896;2024-01-30T11:35:46;13.95;;;10.52;;
56239;SDS011;42154;51.992;5.896;2024-01-30T11:38:15;14.35;;;10.98;;
56239;SDS011;42154;51.992;5.896;2024-01-30T11:40:41;16.38;;;10.05;;
56239;SDS011;42154;51.992;5.896;2024-01-30T11:43:08;16.85;;;9.80;;
56239;SDS011;42154;51.992;5.896;2024-01-30T11:45:35;15.38;;;9.70;;
56239;SDS011;42154;51.992;5.896;2024-01-30T11:48:01;14.25;;;9.35;;
56239;SDS011;42154;51.992;5.896;2024-01-30T11:50:29;11.68;;;9.25;;
56239;SDS011;42154;51.992;5.896;2024-01-30T11:53:01;13.60;;;7.93;;
56239;SDS011;42154;51.992;5.896;2024-01-30T11:55:28;12.00;;;8.40;;
56239;SDS011;42154;51.992;5.896;2024-01-30T11:57:55;11.93;;;8.23;;
56239;SDS011;42154;51.992;5.896;2024-01-30T12:00:24;12.18;;;8.48;;
56239;SDS011;42154;51.992;5.896;2024-01-30T12:02:55;9.48;;;6.85;;
56239;SDS011;42154;51.992;5.896;2024-01-30T12:05:27;9.52;;;7.45;;
56239;SDS011;42154;51.992;5.896;2024-01-30T12:07:53;10.68;;;7.20;;
56239;SDS011;42154;51.992;5.896;2024-01-30T12:10:19;14.18;;;7.40;;
56239;SDS011;42154;51.992;5.896;2024-01-30T12:12:46;11.45;;;7.13;;
56239;SDS011;42154;51.992;5.896;2024-01-30T12:15:13;12.43;;;7.93;;
56239;SDS011;42154;51.992;5.896;2024-01-30T12:17:39;11.02;;;7.30;;
56239;SDS011;42154;51.992;5.896;2024-01-30T12:20:09;9.68;;;7.20;;
56239;SDS011;42154;51.992;5.896;2024-01-30T12:22:37;16.25;;;7.82;;
56239;SDS011;42154;51.992;5.896;2024-01-30T12:25:10;13.73;;;7.50;;
56239;SDS011;42154;51.992;5.896;2024-01-30T12:27:37;9.05;;;6.95;;
56239;SDS011;42154;51.992;5.896;2024-01-30T12:30:07;8.88;;;6.82;;
56239;SDS011;42154;51.992;5.896;2024-01-30T12:32:41;8.52;;;6.20;;
56239;SDS011;42154;51.992;5.896;2024-01-30T12:35:11;8.85;;;6.55;;
56239;SDS011;42154;51.992;5.896;2024-01-30T12:37:45;10.50;;;6.45;;
56239;SDS011;42154;51.992;5.896;2024-01-30T12:40:13;10.68;;;5.28;;
56239;SDS011;42154;51.992;5.896;2024-01-30T12:42:46;7.90;;;4.35;;
56239;SDS011;42154;51.992;5.896;2024-01-30T12:45:15;8.38;;;3.10;;
56239;SDS011;42154;51.992;5.896;2024-01-30T12:47:41;8.43;;;3.78;;
56239;SDS011;42154;51.992;5.896;2024-01-30T12:50:07;5.57;;;2.85;;
56239;SDS011;42154;51.992;5.896;2024-01-30T12:52:33;9.70;;;3.55;;
56239;SDS011;42154;51.992;5.896;2024-01-30T12:55:00;4.80;;;2.65;;
56239;SDS011;42154;51.992;5.896;2024-01-30T12:57:26;5.95;;;2.53;;
56239;SDS011;42154;51.992;5.896;2024-01-30T12:59:52;4.50;;;1.90;;
56239;SDS011;42154;51.992;5.896;2024-01-30T13:02:17;4.25;;;1.70;;
56239;SDS011;42154;51.992;5.896;2024-01-30T13:04:43;7.53;;;2.72;;
56239;SDS011;42154;51.992;5.896;2024-01-30T13:07:09;3.10;;;1.60;;
56239;SDS011;42154;51.992;5.896;2024-01-30T13:09:35;5.25;;;2.10;;
56239;SDS011;42154;51.992;5.896;2024-01-30T13:12:01;3.38;;;1.52;;
56239;SDS011;42154;51.992;5.896;2024-01-30T13:14:27;3.30;;;1.25;;
56239;SDS011;42154;51.992;5.896;2024-01-30T13:16:52;3.38;;;1.58;;
56239;SDS011;42154;51.992;5.896;2024-01-30T13:19:18;3.53;;;1.50;;
56239;SDS011;42154;51.992;5.896;2024-01-30T13:21:44;2.80;;;0.93;;
56239;SDS011;42154;51.992;5.896;2024-01-30T13:24:10;3.50;;;1.10;;
56239;SDS011;42154;51.992;5.896;2024-01-30T13:26:36;2.47;;;0.90;;
56239;SDS011;42154;51.992;5.896;2024-01-30T13:29:02;3.00;;;0.95;;
56239;SDS011;42154;51.992;5.896;2024-01-30T13:31:28;4.75;;;1.02;;
56239;SDS011;42154;51.992;5.896;2024-01-30T13:33:55;3.53;;;0.90;;
56239;SDS011;42154;51.992;5.896;2024-01-30T13:36:21;1.90;;;0.80;;
56239;SDS011;42154;51.992;5.896;2024-01-30T13:38:47;1.20;;;0.40;;
56239;SDS011;42154;51.992;5.896;2024-01-30T13:41:13;3.67;;;0.75;;
56239;SDS011;42154;51.992;5.896;2024-01-30T13:43:38;3.03;;;0.82;;
56239;SDS011;42154;51.992;5.896;2024-01-30T13:46:04;2.00;;;0.73;;
56239;SDS011;42154;51.992;5.896;2024-01-30T13:48:31;6.07;;;1.52;;
56239;SDS011;42154;51.992;5.896;2024-01-30T13:50:57;5.03;;;1.60;;
56239;SDS011;42154;51.992;5.896;2024-01-30T13:53:22;4.68;;;1.48;;
56239;SDS011;42154;51.992;5.896;2024-01-30T13:55:48;6.32;;;2.33;;
56239;SDS011;42154;51.992;5.896;2024-01-30T13:58:14;3.28;;;2.08;;
56239;SDS011;42154;51.992;5.896;2024-01-30T14:00:40;5.57;;;2.42;;
56239;SDS011;42154;51.992;5.896;2024-01-30T14:03:06;7.07;;;2.30;;
56239;SDS011;42154;51.992;5.896;2024-01-30T14:05:31;5.85;;;2.47;;
56239;SDS011;42154;51.992;5.896;2024-01-30T14:07:58;8.15;;;2.90;;
56239;SDS011;42154;51.992;5.896;2024-01-30T14:10:25;5.95;;;2.67;;
56239;SDS011;42154;51.992;5.896;2024-01-30T14:12:50;8.88;;;3.50;;
56239;SDS011;42154;51.992;5.896;2024-01-30T14:15:16;7.13;;;3.65;;
56239;SDS011;42154;51.992;5.896;2024-01-30T14:17:46;8.13;;;3.92;;
56239;SDS011;42154;51.992;5.896;2024-01-30T14:20:14;10.40;;;4.72;;
56239;SDS011;42154;51.992;5.896;2024-01-30T14:22:41;6.60;;;3.83;;
56239;SDS011;42154;51.992;5.896;2024-01-30T14:25:07;7.93;;;3.83;;
56239;SDS011;42154;51.992;5.896;2024-01-30T14:27:34;8.13;;;4.20;;
56239;SDS011;42154;51.992;5.896;2024-01-30T14:30:00;5.30;;;3.47;;
56239;SDS011;42154;51.992;5.896;2024-01-30T14:32:26;6.72;;;3.90;;
56239;SDS011;42154;51.992;5.896;2024-01-30T14:34:51;11.68;;;4.63;;
56239;SDS011;42154;51.992;5.896;2024-01-30T14:37:20;11.82;;;3.78;;
56239;SDS011;42154;51.992;5.896;2024-01-30T14:39:47;4.57;;;3.40;;
56239;SDS011;42154;51.992;5.896;2024-01-30T14:42:13;6.65;;;3.50;;
56239;SDS011;42154;51.992;5.896;2024-01-30T14:44:39;5.10;;;3.05;;
56239;SDS011;42154;51.992;5.896;2024-01-30T14:47:05;6.28;;;2.97;;
56239;SDS011;42154;51.992;5.896;2024-01-30T14:49:31;8.20;;;3.50;;